createdAt,value
2023-04-18T00:01:21.440Z,18.87
2023-04-18T00:03:50.177Z,13.33
2023-04-18T00:06:16.880Z,16.80
2023-04-18T00:08:43.697Z,16.50
2023-04-18T00:11:10.161Z,19.57
2023-04-18T00:13:37.026Z,16.87
2023-04-18T00:16:03.953Z,23.67
2023-04-18T00:18:30.405Z,14.77
2023-04-18T00:20:57.473Z,20.03
2023-04-18T00:23:24.115Z,15.20
2023-04-18T00:25:50.854Z,20.53
2023-04-18T00:28:17.304Z,13.90
2023-04-18T00:30:44.144Z,19.70
2023-04-18T00:33:10.573Z,12.70
2023-04-18T00:35:37.314Z,16.07
2023-04-18T00:38:03.810Z,19.70
2023-04-18T00:40:30.984Z,13.60
2023-04-18T00:42:57.452Z,14.93
2023-04-18T00:45:24.301Z,21.27
2023-04-18T00:47:51.198Z,15.20
2023-04-18T00:50:18.207Z,17.07
2023-04-18T00:52:45.891Z,19.47
2023-04-18T00:55:12.543Z,12.73
2023-04-18T00:57:39.516Z,15.30
2023-04-18T01:00:06.984Z,17.23
2023-04-18T01:02:33.726Z,13.43
2023-04-18T01:05:00.537Z,17.37
2023-04-18T01:07:27.054Z,15.43
2023-04-18T01:09:54.874Z,13.57
2023-04-18T01:12:21.339Z,17.43
2023-04-18T01:14:48.476Z,19.27
2023-04-18T01:17:14.970Z,16.63
2023-04-18T01:19:41.762Z,17.83
2023-04-18T01:22:10.050Z,13.30
2023-04-18T01:24:36.844Z,13.10
2023-04-18T01:27:03.430Z,13.73
2023-04-18T01:29:29.898Z,13.20
2023-04-18T01:31:56.785Z,14.57
2023-04-18T01:34:23.406Z,12.93
2023-04-18T01:36:50.147Z,13.47
2023-04-18T01:39:16.665Z,15.33
2023-04-18T01:41:43.443Z,16.13
2023-04-18T01:44:10.015Z,13.63
2023-04-18T01:46:36.896Z,15.27
2023-04-18T01:49:03.416Z,14.90
2023-04-18T01:51:30.342Z,16.90
2023-04-18T01:53:56.797Z,17.60
2023-04-18T01:56:23.270Z,11.33
2023-04-18T01:58:49.929Z,11.57
2023-04-18T02:01:16.452Z,12.17
2023-04-18T02:03:43.338Z,14.33
2023-04-18T02:06:10.232Z,11.20
2023-04-18T02:08:37.213Z,12.73
2023-04-18T02:11:03.744Z,16.10
2023-04-18T02:13:30.280Z,12.37
2023-04-18T02:15:57.124Z,11.87
2023-04-18T02:18:24.696Z,17.63
2023-04-18T02:20:52.234Z,13.73
2023-04-18T02:23:18.968Z,17.57
2023-04-18T02:25:45.599Z,9.60
2023-04-18T02:28:12.040Z,17.77
2023-04-18T02:30:38.900Z,12.27
2023-04-18T02:33:05.405Z,11.43
2023-04-18T02:35:32.216Z,9.77
2023-04-18T02:37:59.040Z,15.83
2023-04-18T02:40:25.483Z,12.80
2023-04-18T02:42:52.308Z,10.02
2023-04-18T02:45:18.811Z,11.35
2023-04-18T02:47:54.588Z,10.80
2023-04-18T02:50:23.245Z,9.50
2023-04-18T02:52:49.938Z,11.43
2023-04-18T02:55:16.550Z,12.17
2023-04-18T02:57:43.372Z,11.63
2023-04-18T03:00:10.423Z,10.47
2023-04-18T03:02:37.399Z,10.83
2023-04-18T03:05:04.267Z,11.65
2023-04-18T03:07:31.139Z,10.50
2023-04-18T03:09:57.847Z,13.20
2023-04-18T03:12:24.731Z,15.10
2023-04-18T03:14:51.193Z,10.33
2023-04-18T03:17:17.747Z,10.13
2023-04-18T03:19:44.662Z,11.63
2023-04-18T03:22:11.113Z,10.57
2023-04-18T03:24:37.913Z,11.70
2023-04-18T03:27:04.418Z,17.10
2023-04-18T03:29:30.867Z,10.30
2023-04-18T03:31:57.692Z,11.97
2023-04-18T03:34:24.141Z,15.17
2023-04-18T03:36:50.609Z,10.73
2023-04-18T03:39:17.057Z,14.47
2023-04-18T03:41:43.505Z,10.48
2023-04-18T03:44:10.396Z,11.07
2023-04-18T03:46:36.956Z,13.63
2023-04-18T03:49:03.812Z,9.68
2023-04-18T03:51:42.807Z,13.20
2023-04-18T03:54:09.277Z,12.90
2023-04-18T03:56:36.582Z,11.67
2023-04-18T03:59:03.108Z,10.87
2023-04-18T04:01:30.023Z,9.10
2023-04-18T04:03:56.947Z,11.55
2023-04-18T04:06:23.816Z,10.32
2023-04-18T04:08:50.315Z,9.13
2023-04-18T04:11:16.791Z,9.63
2023-04-18T04:13:43.658Z,11.80
2023-04-18T04:16:12.856Z,11.10
2023-04-18T04:18:39.641Z,9.73
2023-04-18T04:21:06.149Z,10.73
2023-04-18T04:23:32.713Z,9.57
2023-04-18T04:25:59.611Z,9.60
2023-04-18T04:28:26.050Z,11.07
2023-04-18T04:30:53.001Z,12.40
2023-04-18T04:33:20.727Z,9.13
2023-04-18T04:35:47.978Z,9.80
2023-04-18T04:38:14.566Z,9.97
2023-04-18T04:40:41.724Z,10.07
2023-04-18T04:43:08.952Z,8.93
2023-04-18T04:45:35.420Z,9.67
2023-04-18T04:48:02.330Z,11.27
2023-04-18T04:50:28.897Z,9.00
2023-04-18T04:52:55.686Z,11.13
2023-04-18T04:55:22.167Z,10.97
2023-04-18T04:57:48.984Z,9.00
2023-04-18T05:00:15.922Z,10.17
2023-04-18T05:02:42.541Z,11.47
2023-04-18T05:05:09.538Z,9.87
2023-04-18T05:07:35.971Z,9.30
2023-04-18T05:10:02.827Z,10.63
2023-04-18T05:12:29.309Z,8.07
2023-04-18T05:14:55.794Z,10.73
2023-04-18T05:17:22.424Z,10.80
2023-04-18T05:19:48.976Z,12.53
2023-04-18T05:22:15.440Z,10.43
2023-04-18T05:24:41.965Z,9.80
2023-04-18T05:27:08.445Z,9.27
2023-04-18T05:29:35.188Z,8.53
2023-04-18T05:32:01.771Z,9.33
2023-04-18T05:34:28.248Z,9.57
2023-04-18T05:36:54.739Z,10.37
2023-04-18T05:39:21.207Z,10.60
2023-04-18T05:41:47.721Z,10.57
2023-04-18T05:44:14.574Z,12.03
2023-04-18T05:46:41.457Z,9.20
2023-04-18T05:49:08.529Z,10.13
2023-04-18T05:51:34.999Z,10.93
2023-04-18T05:54:01.647Z,9.50
2023-04-18T05:56:28.181Z,10.10
2023-04-18T05:58:55.064Z,10.70
2023-04-18T06:01:21.936Z,10.97
2023-04-18T06:03:48.603Z,9.83
2023-04-18T06:06:16.053Z,10.77
2023-04-18T06:08:42.484Z,9.90
2023-04-18T06:11:09.333Z,9.87
2023-04-18T06:13:36.255Z,10.07
2023-04-18T06:16:03.163Z,9.43
2023-04-18T06:18:29.704Z,9.00
2023-04-18T06:20:56.175Z,10.37
2023-04-18T06:23:22.993Z,10.93
2023-04-18T06:25:49.587Z,8.23
2023-04-18T06:28:16.557Z,7.60
2023-04-18T06:30:43.168Z,7.97
2023-04-18T06:33:10.041Z,8.40
2023-04-18T06:35:37.173Z,8.40
2023-04-18T06:38:04.048Z,8.40
2023-04-18T06:40:30.583Z,13.53
2023-04-18T06:42:57.275Z,9.30
2023-04-18T06:45:23.716Z,10.10
2023-04-18T06:47:50.800Z,8.43
2023-04-18T06:50:17.304Z,8.63
2023-04-18T06:52:43.770Z,9.43
2023-04-18T06:55:12.391Z,8.87
2023-04-18T06:57:40.720Z,9.40
2023-04-18T07:00:07.860Z,12.03
2023-04-18T07:02:37.483Z,9.73
2023-04-18T07:05:04.321Z,10.90
2023-04-18T07:07:31.715Z,9.93
2023-04-18T07:09:58.986Z,9.83
2023-04-18T07:12:25.505Z,9.40
2023-04-18T07:14:52.655Z,10.07
2023-04-18T07:17:19.373Z,10.10
2023-04-18T07:19:46.262Z,11.40
2023-04-18T07:22:12.728Z,8.50
2023-04-18T07:24:39.530Z,9.43
2023-04-18T07:27:06.899Z,10.33
2023-04-18T07:29:33.344Z,13.73
2023-04-18T07:32:00.129Z,10.83
2023-04-18T07:34:26.659Z,11.83
2023-04-18T07:36:53.520Z,11.00
2023-04-18T07:39:20.336Z,11.03
2023-04-18T07:41:46.783Z,10.90
2023-04-18T07:44:14.240Z,11.47
2023-04-18T07:46:41.447Z,12.47
2023-04-18T07:49:08.289Z,13.37
2023-04-18T07:51:37.058Z,10.53
2023-04-18T07:54:03.601Z,12.23
2023-04-18T07:56:30.395Z,15.17
2023-04-18T07:58:56.828Z,10.73
2023-04-18T08:01:23.622Z,12.50
2023-04-18T08:03:50.634Z,11.97
2023-04-18T08:06:17.543Z,12.23
2023-04-18T08:08:44.198Z,14.27
2023-04-18T08:11:11.046Z,14.53
2023-04-18T08:13:37.513Z,11.10
2023-04-18T08:16:04.258Z,12.73
2023-04-18T08:18:30.998Z,12.43
2023-04-18T08:20:57.429Z,11.80
2023-04-18T08:23:24.262Z,11.57
2023-04-18T08:25:50.715Z,12.77
2023-04-18T08:28:17.972Z,10.90
2023-04-18T08:30:44.448Z,12.57
2023-04-18T08:33:11.417Z,11.30
2023-04-18T08:35:38.232Z,14.43
2023-04-18T08:38:04.677Z,12.77
2023-04-18T08:40:31.691Z,12.73
2023-04-18T08:43:01.534Z,13.37
2023-04-18T08:45:28.419Z,14.57
2023-04-18T08:47:55.377Z,13.97
2023-04-18T08:50:22.418Z,12.00
2023-04-18T08:52:50.477Z,12.37
2023-04-18T08:55:17.099Z,11.50
2023-04-18T08:57:44.222Z,11.33
2023-04-18T09:00:11.254Z,11.27
2023-04-18T09:02:40.299Z,11.73
2023-04-18T09:05:19.540Z,10.30
2023-04-18T09:07:47.915Z,11.60
2023-04-18T09:10:28.771Z,12.43
2023-04-18T09:12:57.352Z,12.27
2023-04-18T09:15:26.405Z,9.60
2023-04-18T09:17:54.441Z,10.73
2023-04-18T09:20:36.356Z,9.20
2023-04-18T09:23:11.566Z,9.83
2023-04-18T09:25:45.269Z,9.43
2023-04-18T09:28:32.090Z,12.03
2023-04-18T09:31:12.324Z,9.47
2023-04-18T09:33:40.789Z,9.10
2023-04-18T09:36:20.506Z,12.03
2023-04-18T09:38:48.743Z,11.37
2023-04-18T09:41:15.587Z,9.67
2023-04-18T09:43:42.720Z,9.43
2023-04-18T09:46:09.756Z,11.10
2023-04-18T09:48:37.090Z,10.70
2023-04-18T09:51:12.164Z,9.57
2023-04-18T09:53:39.576Z,10.97
2023-04-18T09:56:18.858Z,11.97
2023-04-18T09:58:50.374Z,10.90
2023-04-18T10:01:17.300Z,13.10
2023-04-18T10:03:50.299Z,13.20
2023-04-18T10:06:17.972Z,14.27
2023-04-18T10:08:46.924Z,14.00
2023-04-18T10:11:13.685Z,11.87
2023-04-18T10:13:44.678Z,11.47
2023-04-18T10:16:11.332Z,13.27
2023-04-18T10:18:38.267Z,11.70
2023-04-18T10:21:05.923Z,14.57
2023-04-18T10:23:32.381Z,15.30
2023-04-18T10:25:59.500Z,13.97
2023-04-18T10:28:26.902Z,12.43
2023-04-18T10:31:01.238Z,13.47
2023-04-18T10:33:41.051Z,13.53
2023-04-18T10:36:09.049Z,17.17
2023-04-18T10:38:37.043Z,13.33
2023-04-18T10:41:23.803Z,12.77
2023-04-18T10:44:09.108Z,13.03
2023-04-18T10:46:39.309Z,14.27
2023-04-18T10:49:19.716Z,13.70
2023-04-18T10:52:04.442Z,14.10
2023-04-18T10:54:53.054Z,13.03
2023-04-18T10:57:19.506Z,13.80
2023-04-18T10:59:49.894Z,12.17
2023-04-18T11:02:26.430Z,13.70
2023-04-18T11:04:54.703Z,13.80
2023-04-18T11:07:40.546Z,13.90
2023-04-18T11:10:08.929Z,14.23
2023-04-18T11:12:37.467Z,13.83
2023-04-18T11:15:11.126Z,13.97
2023-04-18T11:17:38.847Z,15.03
2023-04-18T11:20:11.359Z,13.93
2023-04-18T11:22:47.486Z,14.07
2023-04-18T11:25:18.374Z,13.27
2023-04-18T11:27:47.400Z,14.97
2023-04-18T11:30:14.754Z,15.80
2023-04-18T11:32:42.152Z,15.93
2023-04-18T11:35:10.969Z,14.73
2023-04-18T11:37:38.883Z,16.60
2023-04-18T11:40:08.269Z,17.47
2023-04-18T11:42:37.597Z,15.73
2023-04-18T11:45:08.526Z,18.47
2023-04-18T11:47:35.059Z,17.50
2023-04-18T11:50:04.659Z,18.83
2023-04-18T11:52:32.426Z,18.20
2023-04-18T11:55:18.561Z,15.93
2023-04-18T11:57:56.643Z,16.63
2023-04-18T12:00:36.385Z,17.97
2023-04-18T12:03:05.466Z,20.27
2023-04-18T12:05:34.908Z,18.63
2023-04-18T12:08:19.595Z,18.07
2023-04-18T12:10:50.754Z,18.20
2023-04-18T12:13:18.798Z,16.63
2023-04-18T12:15:46.478Z,19.30
2023-04-18T12:18:14.528Z,20.33
2023-04-18T12:20:43.164Z,17.83
2023-04-18T12:23:09.647Z,20.77
2023-04-18T12:25:36.419Z,21.57
2023-04-18T12:28:13.131Z,21.93
2023-04-18T12:30:39.596Z,18.93
2023-04-18T12:33:06.325Z,19.17
2023-04-18T12:35:32.963Z,20.43
2023-04-18T12:38:00.903Z,18.57
2023-04-18T12:40:28.542Z,20.60
2023-04-18T12:42:56.258Z,21.30
2023-04-18T12:45:23.400Z,17.93
2023-04-18T12:47:51.743Z,20.40
2023-04-18T12:50:20.963Z,20.87
2023-04-18T12:52:47.886Z,21.27
2023-04-18T12:55:14.638Z,21.80
2023-04-18T12:57:42.306Z,21.80
2023-04-18T13:00:09.774Z,17.47
2023-04-18T13:02:37.568Z,19.77
2023-04-18T13:05:09.063Z,20.33
2023-04-18T13:07:36.020Z,19.57
2023-04-18T13:10:02.893Z,21.30
2023-04-18T13:12:30.062Z,22.13
2023-04-18T13:14:56.990Z,21.37
2023-04-18T13:17:23.515Z,16.43
2023-04-18T13:19:50.055Z,20.50
2023-04-18T13:22:19.076Z,18.67
2023-04-18T13:24:45.571Z,19.53
2023-04-18T13:27:13.217Z,19.03
2023-04-18T13:29:40.607Z,19.63
2023-04-18T13:32:08.219Z,19.23
2023-04-18T13:34:38.363Z,18.33
2023-04-18T13:37:05.592Z,21.50
2023-04-18T13:39:33.190Z,17.50
2023-04-18T13:42:00.078Z,18.43
2023-04-18T13:44:26.544Z,17.17
2023-04-18T13:46:53.096Z,17.17
2023-04-18T13:49:19.620Z,18.57
2023-04-18T13:51:46.106Z,19.87
2023-04-18T13:54:13.861Z,19.00
2023-04-18T13:56:40.800Z,21.97
2023-04-18T13:59:07.391Z,20.93
2023-04-18T14:01:34.103Z,17.83
2023-04-18T14:04:01.060Z,19.73
2023-04-18T14:06:27.978Z,18.13
2023-04-18T14:08:55.061Z,18.93
2023-04-18T14:11:23.289Z,19.27
2023-04-18T14:13:49.753Z,19.20
2023-04-18T14:16:16.912Z,17.00
2023-04-18T14:18:43.422Z,17.30
2023-04-18T14:21:10.359Z,22.93
2023-04-18T14:23:36.811Z,18.67
2023-04-18T14:26:03.286Z,22.30
2023-04-18T14:28:30.575Z,19.17
2023-04-18T14:30:58.101Z,21.33
2023-04-18T14:33:24.629Z,17.90
2023-04-18T14:35:51.092Z,19.23
2023-04-18T14:38:17.684Z,17.53
2023-04-18T14:40:44.161Z,16.67
2023-04-18T14:43:11.692Z,18.43
2023-04-18T14:45:38.182Z,18.37
2023-04-18T14:48:05.173Z,17.63
2023-04-18T14:50:32.186Z,18.33
2023-04-18T14:52:58.681Z,18.20
2023-04-18T14:55:25.610Z,17.73
2023-04-18T14:57:52.085Z,16.83
2023-04-18T15:00:18.915Z,17.80
2023-04-18T15:02:45.476Z,18.93
2023-04-18T15:05:12.982Z,17.80
2023-04-18T15:07:39.677Z,17.70
2023-04-18T15:10:07.402Z,16.73
2023-04-18T15:12:33.909Z,15.97
2023-04-18T15:15:00.395Z,18.23
2023-04-18T15:17:27.945Z,16.13
2023-04-18T15:19:54.508Z,15.27
2023-04-18T15:22:21.123Z,13.07
2023-04-18T15:24:47.895Z,15.07
2023-04-18T15:27:14.571Z,16.17
2023-04-18T15:29:41.077Z,15.47
2023-04-18T15:32:07.592Z,17.23
2023-04-18T15:34:34.085Z,16.47
2023-04-18T15:37:00.547Z,16.33
2023-04-18T15:39:26.995Z,16.47
2023-04-18T15:41:54.410Z,16.23
2023-04-18T15:44:21.422Z,17.00
2023-04-18T15:46:49.021Z,18.67
2023-04-18T15:49:16.441Z,17.07
2023-04-18T15:51:42.993Z,15.47
2023-04-18T15:54:09.470Z,16.87
2023-04-18T15:56:35.950Z,17.13
2023-04-18T15:59:04.608Z,16.27
2023-04-18T16:01:31.742Z,16.37
2023-04-18T16:03:58.407Z,15.83
2023-04-18T16:06:24.908Z,16.80
2023-04-18T16:08:51.350Z,16.73
2023-04-18T16:11:20.028Z,16.57
2023-04-18T16:13:46.519Z,16.80
2023-04-18T16:16:13.085Z,17.67
2023-04-18T16:18:39.652Z,16.80
2023-04-18T16:21:06.155Z,15.93
2023-04-18T16:23:32.866Z,16.47
2023-04-18T16:25:59.331Z,17.67
2023-04-18T16:28:25.829Z,15.90
2023-04-18T16:30:54.877Z,15.83
2023-04-18T16:33:22.233Z,17.20
2023-04-18T16:35:48.801Z,15.93
2023-04-18T16:38:15.247Z,16.43
2023-04-18T16:40:41.678Z,16.77
2023-04-18T16:43:08.133Z,15.63
2023-04-18T16:45:34.585Z,16.83
2023-04-18T16:48:01.531Z,16.00
2023-04-18T16:50:28.405Z,15.90
2023-04-18T16:52:54.899Z,15.97
2023-04-18T16:55:21.514Z,15.77
2023-04-18T16:57:47.962Z,16.00
2023-04-18T17:00:15.160Z,15.67
2023-04-18T17:02:41.666Z,15.70
2023-04-18T17:05:10.022Z,15.20
2023-04-18T17:07:37.245Z,15.03
2023-04-18T17:10:03.931Z,14.83
2023-04-18T17:12:30.419Z,16.10
2023-04-18T17:14:56.914Z,14.83
2023-04-18T17:17:23.361Z,14.73
2023-04-18T17:19:50.107Z,14.27
2023-04-18T17:22:16.568Z,17.07
2023-04-18T17:24:43.030Z,14.10
2023-04-18T17:27:09.543Z,16.53
2023-04-18T17:29:36.039Z,15.30
2023-04-18T17:32:02.570Z,14.80
2023-04-18T17:34:29.583Z,14.83
2023-04-18T17:36:56.036Z,13.23
2023-04-18T17:39:22.671Z,13.63
2023-04-18T17:41:49.340Z,14.07
2023-04-18T17:44:15.785Z,14.20
2023-04-18T17:46:42.224Z,13.87
2023-04-18T17:49:08.670Z,14.40
2023-04-18T17:51:35.110Z,13.70
2023-04-18T17:54:01.658Z,14.00
2023-04-18T17:56:28.395Z,13.90
2023-04-18T17:58:56.672Z,14.70
2023-04-18T18:01:23.341Z,13.47
2023-04-18T18:03:50.088Z,14.93
2023-04-18T18:06:16.804Z,14.20
2023-04-18T18:08:43.785Z,16.07
2023-04-18T18:11:10.616Z,14.70
2023-04-18T18:13:37.204Z,15.17
2023-04-18T18:16:04.183Z,14.60
2023-04-18T18:18:30.685Z,14.03
2023-04-18T18:20:58.222Z,13.80
2023-04-18T18:23:24.869Z,14.97
2023-04-18T18:25:51.361Z,14.77
2023-04-18T18:28:17.882Z,14.47
2023-04-18T18:30:44.354Z,14.60
2023-04-18T18:33:10.920Z,14.40
2023-04-18T18:35:37.413Z,13.60
2023-04-18T18:38:03.878Z,16.17
2023-04-18T18:40:30.958Z,14.73
2023-04-18T18:42:57.407Z,14.30
2023-04-18T18:45:24.192Z,14.90
2023-04-18T18:47:50.719Z,13.80
2023-04-18T18:50:17.243Z,14.97
2023-04-18T18:52:43.687Z,14.67
2023-04-18T18:55:11.164Z,15.53
2023-04-18T18:57:37.696Z,14.63
2023-04-18T19:00:06.485Z,14.03
2023-04-18T19:02:33.535Z,14.47
2023-04-18T19:05:00.460Z,14.60
2023-04-18T19:07:29.482Z,15.20
2023-04-18T19:09:56.479Z,14.87
2023-04-18T19:12:22.958Z,14.53
2023-04-18T19:14:49.817Z,13.70
2023-04-18T19:17:16.667Z,15.37
2023-04-18T19:19:43.183Z,14.33
2023-04-18T19:22:10.176Z,14.27
2023-04-18T19:24:37.014Z,14.77
2023-04-18T19:27:03.508Z,14.07
2023-04-18T19:29:32.486Z,14.43
2023-04-18T19:31:59.276Z,13.70
2023-04-18T19:34:26.122Z,16.47
2023-04-18T19:36:52.582Z,14.10
2023-04-18T19:39:19.364Z,13.87
2023-04-18T19:41:45.804Z,14.60
2023-04-18T19:44:12.247Z,14.30
2023-04-18T19:46:38.905Z,14.47
2023-04-18T19:49:05.908Z,14.43
2023-04-18T19:51:32.810Z,16.00
2023-04-18T19:53:59.661Z,14.60
2023-04-18T19:56:26.493Z,13.30
2023-04-18T19:58:52.964Z,13.87
2023-04-18T20:01:20.318Z,14.20
2023-04-18T20:03:47.655Z,14.53
2023-04-18T20:06:14.494Z,14.23
2023-04-18T20:08:41.757Z,13.07
2023-04-18T20:11:10.209Z,14.50
2023-04-18T20:13:37.077Z,15.27
2023-04-18T20:16:04.665Z,14.30
2023-04-18T20:18:31.177Z,16.20
2023-04-18T20:20:58.066Z,14.17
2023-04-18T20:23:24.916Z,13.90
2023-04-18T20:25:51.404Z,14.50
2023-04-18T20:28:17.862Z,14.90
2023-04-18T20:30:44.718Z,12.97
2023-04-18T20:33:13.443Z,14.13
2023-04-18T20:35:40.443Z,13.33
2023-04-18T20:38:07.195Z,15.67
2023-04-18T20:40:35.057Z,14.40
2023-04-18T20:43:01.692Z,15.37
2023-04-18T20:45:28.819Z,16.43
2023-04-18T20:47:56.179Z,15.40
2023-04-18T20:50:22.696Z,13.70
2023-04-18T20:52:49.152Z,15.03
2023-04-18T20:55:15.642Z,14.70
2023-04-18T20:57:42.545Z,14.67
2023-04-18T21:00:09.423Z,14.00
2023-04-18T21:02:36.249Z,13.20
2023-04-18T21:05:02.963Z,13.57
2023-04-18T21:07:29.803Z,13.37
2023-04-18T21:09:56.477Z,14.57
2023-04-18T21:12:22.977Z,15.50
2023-04-18T21:14:49.676Z,13.67
2023-04-18T21:17:16.123Z,13.80
2023-04-18T21:19:45.410Z,17.67
2023-04-18T21:22:11.923Z,16.57
2023-04-18T21:24:38.742Z,17.27
2023-04-18T21:27:05.184Z,13.90
2023-04-18T21:29:32.220Z,15.47
2023-04-18T21:31:58.746Z,13.87
2023-04-18T21:34:25.730Z,14.77
2023-04-18T21:36:52.572Z,13.30
2023-04-18T21:39:19.002Z,13.70
2023-04-18T21:41:45.894Z,14.53
2023-04-18T21:44:12.339Z,16.13
2023-04-18T21:46:39.213Z,14.20
2023-04-18T21:49:06.373Z,16.60
2023-04-18T21:51:32.841Z,14.37
2023-04-18T21:53:59.688Z,12.90
2023-04-18T21:56:26.134Z,14.77
2023-04-18T21:58:52.885Z,14.67
2023-04-18T22:01:19.430Z,14.60
2023-04-18T22:03:46.418Z,14.60
2023-04-18T22:06:12.986Z,16.03
2023-04-18T22:08:39.814Z,15.57
2023-04-18T22:11:06.278Z,15.77
2023-04-18T22:13:32.749Z,14.50
2023-04-18T22:16:00.863Z,15.80
2023-04-18T22:18:27.431Z,15.23
2023-04-18T22:20:54.108Z,15.03
2023-04-18T22:23:20.562Z,18.73
2023-04-18T22:25:47.534Z,15.43
2023-04-18T22:28:14.054Z,15.50
2023-04-18T22:30:40.918Z,15.97
2023-04-18T22:33:07.761Z,15.27
2023-04-18T22:35:34.217Z,15.33
2023-04-18T22:38:01.146Z,15.17
2023-04-18T22:40:27.619Z,16.17
2023-04-18T22:42:54.478Z,15.23
2023-04-18T22:45:20.995Z,17.23
2023-04-18T22:47:47.811Z,15.40
2023-04-18T22:50:14.618Z,17.77
2023-04-18T22:52:41.680Z,15.70
2023-04-18T22:55:08.706Z,17.33
2023-04-18T22:57:35.288Z,15.00
2023-04-18T23:00:01.843Z,15.27
2023-04-18T23:02:28.543Z,17.37
2023-04-18T23:04:57.361Z,13.73
2023-04-18T23:07:23.824Z,14.10
2023-04-18T23:09:50.663Z,15.73
2023-04-18T23:12:17.122Z,16.00
2023-04-18T23:14:43.936Z,16.53
2023-04-18T23:17:10.395Z,16.77
2023-04-18T23:19:37.194Z,15.87
2023-04-18T23:22:03.710Z,15.67
2023-04-18T23:24:30.904Z,15.17
2023-04-18T23:26:57.759Z,16.17
2023-04-18T23:29:24.587Z,15.40
2023-04-18T23:31:51.508Z,18.63
2023-04-18T23:34:18.061Z,17.53
2023-04-18T23:36:44.900Z,15.60
2023-04-18T23:39:11.358Z,18.07
2023-04-18T23:41:38.304Z,17.17
2023-04-18T23:44:04.949Z,16.80
2023-04-18T23:46:31.409Z,17.63
2023-04-18T23:48:58.310Z,19.13
2023-04-18T23:51:24.794Z,17.50
2023-04-18T23:53:51.638Z,15.70
2023-04-18T23:56:18.092Z,15.50
2023-04-18T23:58:44.951Z,17.70
